Fujairah, United Arab Emirates
Current Conditions -  °F | °C
As of 7:00 AM on Sunday 25 Jan 2015 (Local Time) from OMFJ Reporting Station
Haze Haze  
Wind Chill: 63°   Ceiling: Unl
Heat Index: 63°   Visibility: 3mi
Dew Point: 52°   Wind: 5mph
Humidity: 68%   Direction: 290°WNW
Pressure: 30.18"   Gusts: NA
Location:  25.34°N, 56.17°E
Report Text: OMFJ 250300Z 29004KT 5000 HZ FEW016 17/11 Q1022 A3018
Loading
Personal Weather Stations






























Interactive Weather Map New forecast layout! Learn more

10-Day Weather Forecast

Advertisements
Track Severe Weather on mobile